Time;durP1;ratioP1;P1;durP2;ratioP2;P2;SDS_P1;SDS_P2;PMS_P1;PMS_P2;Temp;Humidity;BMP_temperature;BMP_pressure;BME280_temperature;BME280_humidity;BME280_pressure;Samples;Min_cycle;Max_cycle;Signal;HPM_P1;HPM_P2
2022/12/21 00:01:12;;;;;;;6.53;5.45;;;;;;;3.88;100.00;95685.72;5054888;28;24434;-71
2022/12/21 00:03:40;;;;;;;8.05;4.25;;;;;;;3.88;100.00;95688.28;5055820;28;24443;-71
2022/12/21 00:06:07;;;;;;;5.88;4.28;;;;;;;3.88;100.00;95683.16;5067364;28;24442;-72
2022/12/21 00:08:36;;;;;;;8.50;4.35;;;;;;;3.82;100.00;95679.97;5052537;28;24471;-71
2022/12/21 00:11:04;;;;;;;13.52;4.22;;;;;;;3.78;100.00;95671.63;5055787;28;24508;-72
2022/12/21 00:13:30;;;;;;;8.23;4.53;;;;;;;3.76;100.00;95675.13;5050147;28;24516;-72
2022/12/21 00:15:57;;;;;;;5.35;4.15;;;;;;;3.75;100.00;95673.44;5064028;28;24450;-72
2022/12/21 00:18:24;;;;;;;6.68;4.97;;;;;;;3.77;100.00;95677.59;5052637;28;24496;-71
2022/12/21 00:20:59;;;;;;;5.00;4.50;;;;;;;3.75;100.00;95674.28;5065764;28;24435;-72
2022/12/21 00:23:25;;;;;;;6.45;4.75;;;;;;;3.74;100.00;95676.88;5054133;28;24455;-71
2022/12/21 00:25:52;;;;;;;7.60;5.45;;;;;;;3.63;100.00;95670.47;5065586;28;24434;-71
2022/12/21 00:28:18;;;;;;;7.53;5.25;;;;;;;3.57;100.00;95673.22;5051387;28;24967;-71
2022/12/21 00:30:45;;;;;;;7.40;5.20;;;;;;;3.52;100.00;95670.03;5061171;28;24455;-72
2022/12/21 00:33:12;;;;;;;9.30;5.43;;;;;;;3.52;100.00;95671.72;5060346;28;25018;-71
2022/12/21 00:35:38;;;;;;;6.38;5.10;;;;;;;3.49;100.00;95665.00;5069135;28;24442;-72
2022/12/21 00:38:06;;;;;;;5.38;4.10;;;;;;;3.55;100.00;95661.38;5063264;28;24438;-72
2022/12/21 00:40:33;;;;;;;6.43;4.40;;;;;;;3.58;100.00;95662.09;5063531;28;24439;-72
2022/12/21 00:42:59;;;;;;;5.32;4.18;;;;;;;3.58;100.00;95656.97;5062468;28;24438;-71
2022/12/21 00:45:26;;;;;;;8.07;4.65;;;;;;;3.61;100.00;95658.59;5059706;28;24443;-71
2022/12/21 00:47:52;;;;;;;4.68;4.15;;;;;;;3.63;100.00;95656.78;5063038;28;24564;-71
2022/12/21 00:50:19;;;;;;;8.85;4.25;;;;;;;3.61;100.00;95659.41;5063029;28;25047;-72
2022/12/21 00:52:45;;;;;;;9.55;4.80;;;;;;;3.57;100.00;95657.03;5054636;28;24471;-72
2022/12/21 00:55:13;;;;;;;4.22;3.75;;;;;;;3.62;100.00;95652.56;5060375;28;24534;-72
2022/12/21 00:57:39;;;;;;;6.03;3.80;;;;;;;3.65;100.00;95657.59;5058341;28;24436;-72
2022/12/21 01:00:08;;;;;;;6.97;3.97;;;;;;;3.73;100.00;95655.56;5055141;28;24450;-71
2022/12/21 01:02:34;;;;;;;5.13;3.70;;;;;;;3.87;100.00;95648.19;5062810;28;24470;-71
2022/12/21 01:05:01;;;;;;;4.28;3.08;;;;;;;4.04;100.00;95652.69;5062485;28;24428;-71
2022/12/21 01:07:28;;;;;;;3.97;2.92;;;;;;;4.10;100.00;95652.41;5063362;28;24481;-72
2022/12/21 01:09:54;;;;;;;5.05;3.03;;;;;;;4.26;100.00;95642.38;5062377;28;24435;-72
2022/12/21 01:12:22;;;;;;;3.08;2.63;;;;;;;4.38;100.00;95648.78;5058021;28;24462;-72
2022/12/21 01:14:49;;;;;;;4.22;2.80;;;;;;;4.44;100.00;95651.06;5059807;28;24438;-72
2022/12/21 01:17:15;;;;;;;3.90;2.88;;;;;;;4.45;100.00;95641.63;5063082;28;24437;-72
2022/12/21 01:19:41;;;;;;;3.55;2.60;;;;;;;4.59;100.00;95642.75;5062387;28;24447;-71
2022/12/21 01:22:08;;;;;;;5.82;2.42;;;;;;;4.73;100.00;95637.03;5062448;28;24438;-73
2022/12/21 01:24:34;;;;;;;4.95;2.70;;;;;;;4.92;100.00;95637.09;5062570;28;24446;-72
2022/12/21 01:27:01;;;;;;;3.13;2.55;;;;;;;4.96;100.00;95641.19;5061441;28;24438;-72
2022/12/21 01:29:29;;;;;;;5.32;2.30;;;;;;;4.93;100.00;95635.38;5063427;28;24442;-72
2022/12/21 01:31:55;;;;;;;3.85;2.50;;;;;;;4.95;100.00;95633.56;5058120;28;24993;-72
2022/12/21 01:34:22;;;;;;;4.45;2.38;;;;;;;5.03;100.00;95640.03;5066324;28;24446;-72
2022/12/21 01:36:48;;;;;;;6.28;2.30;;;;;;;5.23;100.00;95638.38;5059365;28;25020;-71
2022/12/21 01:39:15;;;;;;;4.75;2.33;;;;;;;5.23;100.00;95643.50;5064748;28;25046;-71
2022/12/21 01:41:42;;;;;;;3.47;2.20;;;;;;;5.39;100.00;95633.38;5053402;28;24431;-71
2022/12/21 01:44:41;;;;;;;5.63;2.10;;;;;;;5.50;100.00;95632.00;5064314;28;24439;-72
2022/12/21 01:47:15;;;;;;;3.75;2.10;;;;;;;5.58;100.00;95636.78;5061533;28;24434;-71
2022/12/21 01:49:42;;;;;;;4.23;2.13;;;;;;;5.55;100.00;95631.78;5061985;28;20729;-72
2022/12/21 01:52:13;;;;;;;3.75;2.08;;;;;;;5.56;100.00;95631.72;5060980;28;24996;-71
2022/12/21 01:54:43;;;;;;;4.45;2.53;;;;;;;5.62;100.00;95633.16;5061407;28;24442;-71
2022/12/21 01:57:13;;;;;;;4.30;2.55;;;;;;;5.64;100.00;95628.81;5060125;28;24449;-72
2022/12/21 01:59:42;;;;;;;4.07;2.28;;;;;;;5.69;100.00;95628.59;5056120;28;24434;-72
2022/12/21 02:02:17;;;;;;;4.70;2.45;;;;;;;5.67;100.00;95631.22;5061435;28;24426;-72
2022/12/21 02:04:44;;;;;;;6.80;2.20;;;;;;;5.78;100.00;95631.56;5059314;28;24443;-71
2022/12/21 02:07:11;;;;;;;7.78;2.20;;;;;;;5.85;100.00;95626.97;5058794;28;24441;-71
2022/12/21 02:09:37;;;;;;;3.03;2.00;;;;;;;5.85;100.00;95631.28;5061082;28;24447;-71
2022/12/21 02:12:06;;;;;;;5.82;2.25;;;;;;;5.82;100.00;95635.66;5060547;28;25001;-71
2022/12/21 02:14:35;;;;;;;9.15;2.28;;;;;;;5.88;100.00;95631.97;5060806;28;24806;-71
2022/12/21 02:17:10;;;;;;;3.67;2.00;;;;;;;5.86;100.00;95623.50;5050296;28;24470;-72
2022/12/21 02:20:12;;;;;;;4.20;2.13;;;;;;;5.78;100.00;95626.44;5056016;28;20783;-71
2022/12/21 02:23:04;;;;;;;4.80;1.95;;;;;;;5.91;100.00;95628.44;5028478;28;24439;-71
2022/12/21 02:25:46;;;;;;;4.80;2.10;;;;;;;5.94;100.00;95625.75;5054185;28;25092;-72
2022/12/21 02:28:37;;;;;;;9.43;1.90;;;;;;;5.94;100.00;95618.03;5050727;28;20814;-71
2022/12/21 02:31:19;;;;;;;3.28;1.83;;;;;;;6.00;100.00;95623.69;5057813;28;24439;-71
2022/12/21 02:34:01;;;;;;;4.75;1.92;;;;;;;6.10;100.00;95616.41;5062430;28;24431;-71
2022/12/21 02:36:39;;;;;;;3.78;1.80;;;;;;;6.09;100.00;95608.78;5056960;28;24439;-71
2022/12/21 02:39:16;;;;;;;4.15;2.17;;;;;;;6.11;100.00;95606.94;5058403;28;20777;-71
2022/12/21 02:41:53;;;;;;;4.05;2.47;;;;;;;6.15;100.00;95613.59;5057321;28;24438;-71
2022/12/21 02:44:30;;;;;;;3.97;2.00;;;;;;;6.15;100.00;95609.28;5053360;28;24852;-71
2022/12/21 02:47:04;;;;;;;3.67;1.60;;;;;;;6.16;100.00;95610.97;5065463;28;24431;-72
2022/12/21 02:49:39;;;;;;;2.60;1.50;;;;;;;6.23;100.00;95612.34;5057279;28;24477;-71
2022/12/21 02:52:09;;;;;;;3.13;1.67;;;;;;;6.20;100.00;95603.94;5060940;28;24458;-72
2022/12/21 02:54:38;;;;;;;3.70;1.90;;;;;;;6.20;100.00;95607.34;5058991;28;24957;-72
2022/12/21 02:57:05;;;;;;;6.25;1.77;;;;;;;6.25;100.00;95599.41;5053029;28;24430;-72
2022/12/21 02:59:34;;;;;;;3.25;1.70;;;;;;;6.32;100.00;95598.19;5054397;28;21271;-72
2022/12/21 03:02:33;;;;;;;3.03;1.55;;;;;;;6.26;100.00;95595.91;5062572;28;24964;-71
2022/12/21 03:05:15;;;;;;;2.90;1.35;;;;;;;6.33;100.00;95599.84;5049435;28;24435;-72
2022/12/21 03:07:53;;;;;;;2.90;1.45;;;;;;;6.34;100.00;95598.97;5051172;28;20813;-72
2022/12/21 03:10:31;;;;;;;2.45;1.30;;;;;;;6.40;100.00;95611.50;5060507;28;24439;-71
2022/12/21 03:13:10;;;;;;;2.63;1.20;;;;;;;6.40;100.00;95603.78;5051917;28;25362;-71
2022/12/21 03:15:45;;;;;;;3.38;1.23;;;;;;;6.45;100.00;95603.56;5058742;28;24961;-71
2022/12/21 03:18:23;;;;;;;2.53;1.23;;;;;;;6.49;100.00;95599.97;5040694;28;20776;-72
2022/12/21 03:20:56;;;;;;;4.65;1.70;;;;;;;6.44;100.00;95610.44;5059243;28;20772;-71
2022/12/21 03:23:29;;;;;;;1.98;1.38;;;;;;;6.38;100.00;95605.63;5058969;28;24789;-71
2022/12/21 03:26:01;;;;;;;3.03;1.63;;;;;;;6.40;100.00;95608.13;5052497;28;20775;-72
2022/12/21 03:28:31;;;;;;;4.90;1.53;;;;;;;6.44;100.00;95601.91;5060768;28;24476;-72
2022/12/21 03:31:03;;;;;;;2.42;1.35;;;;;;;6.42;100.00;95606.31;5052179;28;20767;-71
2022/12/21 03:33:36;;;;;;;3.20;1.37;;;;;;;6.33;100.00;95597.28;5058600;28;24602;-71
2022/12/21 03:36:06;;;;;;;4.30;1.52;;;;;;;6.29;100.00;95600.91;5051080;28;24470;-72
2022/12/21 03:38:38;;;;;;;1.90;1.33;;;;;;;6.30;100.00;95598.28;5061471;28;20765;-72
2022/12/21 03:41:09;;;;;;;2.17;1.20;;;;;;;6.31;100.00;95601.69;5058580;28;24426;-72
2022/12/21 03:43:37;;;;;;;3.60;1.30;;;;;;;6.25;100.00;95594.25;5054664;28;24836;-72
2022/12/21 03:46:07;;;;;;;2.78;1.30;;;;;;;6.23;100.00;95590.91;5056180;28;24435;-72
2022/12/21 03:48:39;;;;;;;2.17;1.20;;;;;;;6.26;100.00;95598.50;5052362;28;24428;-72
2022/12/21 03:51:10;;;;;;;2.78;1.45;;;;;;;6.32;100.00;95595.63;5059177;28;24442;-72
2022/12/21 03:53:44;;;;;;;3.70;1.25;;;;;;;6.29;100.00;95588.06;5059607;28;21272;-72
2022/12/21 03:56:17;;;;;;;1.80;1.10;;;;;;;6.34;100.00;95587.81;5055659;28;24527;-72
2022/12/21 03:58:44;;;;;;;3.00;1.10;;;;;;;6.29;100.00;95586.31;5059736;28;24434;-72
2022/12/21 04:01:19;;;;;;;2.03;0.98;;;;;;;6.26;100.00;95590.78;5057074;28;24437;-72
2022/12/21 04:03:51;;;;;;;6.33;1.43;;;;;;;6.22;100.00;95586.69;5056764;28;24458;-71
2022/12/21 04:06:21;;;;;;;1.87;1.03;;;;;;;6.33;100.00;95589.56;5058418;28;20799;-71
2022/12/21 04:08:48;;;;;;;1.70;1.13;;;;;;;6.36;100.00;95589.44;5059224;28;24513;-71
2022/12/21 04:12:36;;;;;;;1.40;1.10;;;;;;;6.28;100.00;95594.94;5056075;28;24438;-71
2022/12/21 04:14:01;;;;;;;1.08;0.88;;;;;;;6.34;100.00;95587.81;5058445;28;24511;-71
2022/12/21 04:16:28;;;;;;;6.47;1.20;;;;;;;6.41;100.00;95586.63;5062966;28;24825;-71
2022/12/21 04:21:40;;;;;;;3.35;1.27;;;;;;;6.40;100.00;95590.94;5067400;28;24824;-71
2022/12/21 04:29:34;;;;;;;1.95;1.00;;;;;;;6.44;100.00;95592.44;5055034;28;20658;-71
2022/12/21 04:32:01;;;;;;;1.30;0.90;;;;;;;6.43;100.00;95590.78;5064058;28;25022;-71
2022/12/21 04:34:29;;;;;;;1.60;1.00;;;;;;;6.64;100.00;95588.91;5064923;28;24801;-71
2022/12/21 04:39:38;;;;;;;2.08;1.20;;;;;;;6.60;100.00;95589.09;5046784;28;24991;-71
2022/12/21 04:42:05;;;;;;;10.20;1.30;;;;;;;6.53;100.00;95584.28;5057894;28;24453;-71
2022/12/21 04:44:31;;;;;;;2.88;1.20;;;;;;;6.55;100.00;95592.75;5053322;28;24447;-71
2022/12/21 04:46:58;;;;;;;1.95;1.08;;;;;;;6.59;100.00;95596.00;5050515;28;24443;-71
2022/12/21 04:49:24;;;;;;;1.50;0.90;;;;;;;6.52;100.00;95585.19;5050396;28;24438;-71
2022/12/21 04:51:52;;;;;;;2.88;1.30;;;;;;;6.56;100.00;95588.44;5058248;28;24457;-71
2022/12/21 04:54:19;;;;;;;5.18;1.02;;;;;;;6.57;100.00;95582.41;5058250;28;24840;-71
2022/12/21 04:56:45;;;;;;;2.38;1.00;;;;;;;6.55;100.00;95587.59;5064326;28;24515;-71
2022/12/21 04:59:12;;;;;;;2.05;0.90;;;;;;;6.61;100.00;95585.66;5053563;28;24442;-71
2022/12/21 05:01:38;;;;;;;1.60;1.00;;;;;;;6.61;100.00;95583.06;5044968;28;20772;-71
2022/12/21 05:04:05;;;;;;;1.67;0.90;;;;;;;6.55;100.00;95586.78;5055895;28;24432;-71
2022/12/21 05:06:32;;;;;;;2.08;1.10;;;;;;;6.50;100.00;95581.03;5055551;28;24439;-71
2022/12/21 05:09:00;;;;;;;1.27;0.80;;;;;;;6.51;100.00;95583.53;5048026;28;24446;-71
2022/12/21 05:11:27;;;;;;;2.42;1.13;;;;;;;6.47;100.00;95583.75;5063944;28;20838;-71
2022/12/21 05:13:53;;;;;;;3.28;1.13;;;;;;;6.44;100.00;95582.16;5055430;28;20831;-72
2022/12/21 05:16:21;;;;;;;2.08;1.00;;;;;;;6.54;100.00;95580.81;5062943;28;25007;-72
2022/12/21 05:18:48;;;;;;;2.35;0.80;;;;;;;6.55;100.00;95574.72;5061640;28;20763;-71
2022/12/21 05:21:16;;;;;;;3.80;1.07;;;;;;;6.62;100.00;95572.69;5060018;28;25001;-72
2022/12/21 05:23:42;;;;;;;2.58;1.10;;;;;;;6.64;100.00;95572.63;5055336;28;20781;-72
2022/12/21 05:26:11;;;;;;;1.17;0.70;;;;;;;6.72;100.00;95567.94;5057265;28;24822;-72
2022/12/21 05:28:38;;;;;;;1.90;1.00;;;;;;;6.76;100.00;95567.69;5049956;28;20774;-71
2022/12/21 05:31:05;;;;;;;1.17;0.80;;;;;;;6.81;100.00;95567.44;5053693;28;24443;-71
2022/12/21 05:33:31;;;;;;;2.50;1.00;;;;;;;6.83;100.00;95567.38;5059870;28;24467;-72
2022/12/21 05:36:01;;;;;;;1.33;0.80;;;;;;;6.81;100.00;95572.59;5047078;28;24438;-71
2022/12/21 05:38:27;;;;;;;2.22;1.10;;;;;;;6.83;100.00;95569.97;5057883;28;20820;-71
2022/12/21 05:40:54;;;;;;;1.35;0.73;;;;;;;6.82;100.00;95571.66;5050959;28;24438;-72
2022/12/21 05:43:22;;;;;;;0.95;0.68;;;;;;;6.87;100.00;95569.72;5050462;28;24514;-72
2022/12/21 05:45:49;;;;;;;1.98;0.93;;;;;;;6.87;100.00;95572.28;5052483;28;20816;-72
2022/12/21 05:48:16;;;;;;;2.95;0.93;;;;;;;6.97;100.00;95570.91;5053857;28;24516;-72
2022/12/21 05:50:42;;;;;;;1.87;0.83;;;;;;;7.02;100.00;95566.34;5049403;28;20867;-71
2022/12/21 05:53:09;;;;;;;2.00;0.90;;;;;;;6.93;100.00;95559.06;5065319;28;20791;-72
2022/12/21 05:55:36;;;;;;;5.13;0.95;;;;;;;7.03;100.00;95559.44;5048522;28;24442;-71
2022/12/21 05:58:03;;;;;;;1.75;1.00;;;;;;;7.05;100.00;95559.38;5060524;28;20779;-71
2022/12/21 06:00:31;;;;;;;3.20;1.02;;;;;;;6.96;100.00;95564.06;5050237;28;20778;-72
2022/12/21 06:02:58;;;;;;;1.00;0.70;;;;;;;6.94;100.00;95559.94;5056926;28;20808;-71
2022/12/21 06:05:26;;;;;;;2.13;0.88;;;;;;;6.98;100.00;95558.88;5058827;28;20767;-72
2022/12/21 06:07:52;;;;;;;2.08;0.80;;;;;;;6.90;100.00;95559.25;5065149;28;20820;-72
2022/12/21 06:10:19;;;;;;;2.47;1.00;;;;;;;6.91;100.00;95555.78;5052259;28;24443;-71
2022/12/21 06:12:45;;;;;;;1.75;0.88;;;;;;;6.90;100.00;95561.84;5064168;28;24833;-71
2022/12/21 06:15:12;;;;;;;4.57;1.00;;;;;;;6.89;100.00;95562.72;5046527;28;24443;-72
2022/12/21 06:17:40;;;;;;;2.13;1.00;;;;;;;6.85;100.00;95561.22;5060478;28;20790;-72
2022/12/21 06:20:07;;;;;;;5.30;1.00;;;;;;;6.82;100.00;95558.81;5046701;28;20816;-72
2022/12/21 06:22:34;;;;;;;2.30;1.05;;;;;;;6.79;100.00;95566.69;5055698;28;24430;-72
2022/12/21 06:25:01;;;;;;;6.95;2.63;;;;;;;6.75;100.00;95563.47;5059283;28;24445;-72
2022/12/21 06:27:27;;;;;;;2.67;1.80;;;;;;;6.74;100.00;95563.50;5047516;28;24437;-72
2022/12/21 06:29:54;;;;;;;2.33;1.30;;;;;;;6.86;100.00;95568.06;5048671;28;24438;-71
2022/12/21 06:32:20;;;;;;;1.55;1.08;;;;;;;6.87;100.00;95558.59;5050918;28;24446;-71
2022/12/21 06:34:48;;;;;;;3.10;0.87;;;;;;;6.82;100.00;95570.84;5052380;28;25013;-76
2022/12/21 06:37:14;;;;;;;3.38;1.10;;;;;;;6.89;100.00;95567.88;5039242;28;24457;-72
2022/12/21 06:39:41;;;;;;;2.58;1.00;;;;;;;6.93;100.00;95576.28;5056863;28;24443;-73
2022/12/21 06:42:07;;;;;;;3.28;1.10;;;;;;;6.89;100.00;95567.88;5052424;28;24446;-73
2022/12/21 06:44:34;;;;;;;1.92;1.02;;;;;;;6.87;100.00;95566.31;5053134;28;24988;-74
2022/12/21 06:47:00;;;;;;;2.00;1.00;;;;;;;6.87;100.00;95562.00;5050179;28;24443;-73
2022/12/21 06:49:27;;;;;;;1.70;0.97;;;;;;;6.86;100.00;95565.47;5052961;28;24444;-72
2022/12/21 06:51:55;;;;;;;1.53;1.10;;;;;;;6.88;100.00;95568.78;5051188;28;25120;-73
2022/12/21 06:54:21;;;;;;;1.75;1.10;;;;;;;6.85;100.00;95574.09;5060828;28;20902;-72
2022/12/21 06:56:47;;;;;;;3.60;1.20;;;;;;;6.88;100.00;95568.78;5056748;28;24462;-72
2022/12/21 06:59:14;;;;;;;1.70;0.90;;;;;;;6.86;100.00;95578.34;5064899;28;24440;-72
2022/12/21 07:01:41;;;;;;;2.15;1.02;;;;;;;6.94;100.00;95585.69;5049702;28;24431;-73
2022/12/21 07:04:07;;;;;;;1.67;1.00;;;;;;;6.88;100.00;95583.41;5048118;28;25075;-73
2022/12/21 07:06:34;;;;;;;4.25;1.20;;;;;;;6.96;100.00;95583.84;5058978;28;24435;-72
2022/12/21 07:09:02;;;;;;;1.80;1.10;;;;;;;6.90;100.00;95590.16;5057580;28;24798;-73
2022/12/21 07:11:30;;;;;;;4.82;1.48;;;;;;;6.93;100.00;95584.81;5044634;28;20809;-73
2022/12/21 07:13:56;;;;;;;2.40;1.20;;;;;;;7.00;100.00;95590.50;5057158;28;24478;-72
2022/12/21 07:16:24;;;;;;;2.10;1.02;;;;;;;7.20;100.00;95587.72;5057800;28;24427;-72
2022/12/21 07:18:51;;;;;;;1.67;1.25;;;;;;;7.14;100.00;95589.78;5059280;28;24961;-71
2022/12/21 07:21:19;;;;;;;1.90;1.17;;;;;;;7.11;100.00;95589.94;5061483;28;20769;-71
2022/12/21 07:23:46;;;;;;;3.70;1.33;;;;;;;7.13;100.00;95593.28;5064119;28;20808;-71
2022/12/21 07:26:16;;;;;;;3.50;1.20;;;;;;;7.14;100.00;95589.78;5054708;28;20775;-72
2022/12/21 07:28:44;;;;;;;3.20;1.40;;;;;;;7.21;100.00;95585.97;5060901;28;20773;-72
2022/12/21 07:31:12;;;;;;;2.50;1.70;;;;;;;7.24;100.00;95586.66;5058651;28;21419;-67
2022/12/21 07:33:40;;;;;;;3.88;2.40;;;;;;;7.22;100.00;95592.78;5055803;28;20831;-73
2022/12/21 07:36:08;;;;;;;7.40;4.17;;;;;;;7.21;100.00;95598.88;5056620;28;20915;-74
2022/12/21 07:38:37;;;;;;;12.07;6.28;;;;;;;7.21;100.00;95601.44;5060095;28;20776;-73
2022/12/21 07:41:06;;;;;;;13.27;4.95;;;;;;;7.23;100.00;95594.44;5057855;28;21304;-73
2022/12/21 07:43:34;;;;;;;3.72;2.50;;;;;;;7.25;100.00;95595.22;5049502;28;24432;-73
2022/12/21 07:46:02;;;;;;;2.50;1.40;;;;;;;7.30;100.00;95600.13;5054167;28;20818;-73
2022/12/21 07:48:28;;;;;;;2.10;1.20;;;;;;;7.31;100.00;95594.06;5058349;28;24821;-73
2022/12/21 07:50:55;;;;;;;1.50;0.82;;;;;;;7.26;100.00;95599.44;5057796;28;20773;-73
2022/12/21 07:53:21;;;;;;;2.83;1.17;;;;;;;7.23;100.00;95597.88;5055900;28;21024;-72
2022/12/21 07:55:48;;;;;;;1.92;0.90;;;;;;;7.19;100.00;95604.09;5046981;28;24443;-73
2022/12/21 07:58:14;;;;;;;4.80;1.10;;;;;;;7.27;100.00;95609.69;5063793;28;24511;-73
2022/12/21 08:00:42;;;;;;;1.13;0.73;;;;;;;7.21;100.00;95606.59;5062253;28;25007;-73
2022/12/21 08:03:09;;;;;;;2.97;1.10;;;;;;;7.22;100.00;95608.25;5053888;28;20810;-73
2022/12/21 08:05:36;;;;;;;0.93;0.70;;;;;;;7.18;100.00;95605.00;5044216;28;20780;-72
2022/12/21 08:08:03;;;;;;;3.20;1.40;;;;;;;7.31;100.00;95614.69;5060685;28;20798;-72
2022/12/21 08:10:30;;;;;;;5.60;1.20;;;;;;;7.21;100.00;95627.19;5059443;28;24434;-72
2022/12/21 08:12:56;;;;;;;4.38;1.10;;;;;;;7.16;100.00;95624.88;5059467;28;20782;-73
2022/12/21 08:15:23;;;;;;;1.92;1.13;;;;;;;7.15;100.00;95623.19;5055364;28;20776;-73
2022/12/21 08:17:51;;;;;;;1.92;1.30;;;;;;;7.14;100.00;95628.41;5048431;28;24448;-73
2022/12/21 08:20:18;;;;;;;2.85;1.45;;;;;;;7.11;100.00;95626.00;5048732;28;20820;-73
2022/12/21 08:22:45;;;;;;;2.55;1.40;;;;;;;7.13;100.00;95629.34;5049179;28;20816;-73
2022/12/21 08:25:12;;;;;;;4.25;1.30;;;;;;;7.12;100.00;95628.50;5051413;28;20757;-73
2022/12/21 08:27:38;;;;;;;5.15;2.80;;;;;;;7.11;100.00;95620.84;5057314;28;24522;-74
2022/12/21 08:30:06;;;;;;;3.22;2.15;;;;;;;7.08;100.00;95628.72;5049662;28;24455;-72
2022/12/21 08:32:32;;;;;;;3.72;2.65;;;;;;;7.05;100.00;95639.22;5058502;28;20770;-72
2022/12/21 08:35:00;;;;;;;2.75;1.60;;;;;;;6.98;100.00;95630.97;5061306;28;24458;-73
2022/12/21 08:37:27;;;;;;;6.00;4.60;;;;;;;6.97;100.00;95635.28;5058969;28;24439;-72
2022/12/21 08:39:53;;;;;;;5.47;4.80;;;;;;;6.98;100.00;95634.34;5050811;28;24428;-72
2022/12/21 08:42:19;;;;;;;5.40;3.17;;;;;;;6.98;100.00;95636.09;5063377;28;24438;-72
2022/12/21 08:44:47;;;;;;;2.55;1.85;;;;;;;6.98;100.00;95626.63;5059737;28;24985;-73
2022/12/21 08:47:14;;;;;;;3.25;1.55;;;;;;;6.95;100.00;95638.84;5060497;28;20810;-74
2022/12/21 08:49:40;;;;;;;1.83;0.90;;;;;;;6.95;100.00;95626.78;5051762;28;24439;-73
2022/12/21 08:52:08;;;;;;;3.28;1.23;;;;;;;7.02;100.00;95630.72;5057053;28;24435;-73
2022/12/21 08:54:35;;;;;;;2.78;1.27;;;;;;;6.97;100.00;95624.97;5056165;28;25039;-73
2022/12/21 08:57:02;;;;;;;2.47;1.20;;;;;;;7.02;100.00;95628.13;5053880;28;24524;-73
2022/12/21 08:59:28;;;;;;;2.00;1.20;;;;;;;7.03;100.00;95629.78;5061388;28;24438;-74
2022/12/21 09:01:55;;;;;;;3.27;1.47;;;;;;;7.01;100.00;95617.94;5058721;28;24439;-73
2022/12/21 09:04:21;;;;;;;2.50;1.45;;;;;;;7.08;100.00;95626.97;5061346;28;24517;-74
2022/12/21 09:06:48;;;;;;;3.40;1.80;;;;;;;7.06;100.00;95636.53;5059280;28;24442;-74
2022/12/21 09:09:15;;;;;;;3.33;1.43;;;;;;;7.03;100.00;95636.69;5049475;28;25083;-73
2022/12/21 09:11:42;;;;;;;4.95;2.00;;;;;;;7.04;100.00;95635.78;5062492;28;20790;-73
2022/12/21 09:14:08;;;;;;;6.03;3.70;;;;;;;7.00;100.00;95635.09;5059356;28;24477;-72
2022/12/21 09:16:35;;;;;;;13.73;8.50;;;;;;;6.99;100.00;95630.88;5064952;28;24466;-72
2022/12/21 09:19:01;;;;;;;7.60;5.68;;;;;;;6.98;100.00;95629.22;5056636;28;25004;-72
2022/12/21 09:21:29;;;;;;;13.80;5.65;;;;;;;7.05;100.00;95631.47;5062671;28;20800;-73
2022/12/21 09:23:55;;;;;;;7.30;5.22;;;;;;;7.08;100.00;95632.13;5058606;28;20811;-72
2022/12/21 09:26:23;;;;;;;13.93;6.53;;;;;;;7.03;100.00;95627.22;5057775;28;20773;-72
2022/12/21 09:28:49;;;;;;;7.70;5.15;;;;;;;6.98;100.00;95621.50;5056066;28;21165;-72
2022/12/21 09:31:17;;;;;;;9.13;5.90;;;;;;;7.01;100.00;95629.06;5057810;28;20858;-72
2022/12/21 09:33:44;;;;;;;3.60;2.65;;;;;;;7.01;100.00;95634.22;5049807;28;20825;-72
2022/12/21 09:36:12;;;;;;;4.68;2.78;;;;;;;7.01;100.00;95644.50;5053308;28;24434;-72
2022/12/21 09:38:39;;;;;;;5.20;2.90;;;;;;;7.03;100.00;95640.09;5060430;28;20806;-71
2022/12/21 09:41:37;;;;;;;6.00;4.43;;;;;;;7.00;100.00;95654.88;5057175;28;24977;-73
2022/12/21 09:44:20;;;;;;;10.10;7.70;;;;;;;6.96;100.00;95653.38;5053719;28;20683;-73
2022/12/21 09:46:49;;;;;;;5.03;4.25;;;;;;;6.97;100.00;95655.03;5048718;28;20652;-73
2022/12/21 09:49:22;;;;;;;5.17;2.70;;;;;;;6.95;100.00;95652.53;5059452;28;21058;-74
2022/12/21 09:51:54;;;;;;;4.25;2.20;;;;;;;6.95;100.00;95665.41;5057522;28;20733;-72
2022/12/21 09:54:26;;;;;;;4.30;2.65;;;;;;;6.95;100.00;95665.41;5053161;28;20726;-72
2022/12/21 09:56:56;;;;;;;3.65;2.67;;;;;;;6.91;100.00;95661.31;5049925;28;20723;-74
2022/12/21 09:59:22;;;;;;;2.83;2.28;;;;;;;6.91;100.00;95663.91;5059642;28;25112;-72
2022/12/21 10:01:57;;;;;;;4.00;2.20;;;;;;;6.93;100.00;95666.38;5052506;28;24821;-72
2022/12/21 10:04:44;;;;;;;3.35;1.83;;;;;;;7.01;100.00;95665.09;5053463;28;20744;-72
2022/12/21 10:07:28;;;;;;;5.90;1.75;;;;;;;7.09;100.00;95661.31;5057210;28;20651;-73
2022/12/21 10:10:07;;;;;;;3.20;1.67;;;;;;;7.18;100.00;95659.09;5054911;28;20708;-72
2022/12/21 10:12:42;;;;;;;3.75;1.88;;;;;;;7.21;100.00;95653.78;5056810;28;20746;-72
2022/12/21 10:15:28;;;;;;;3.57;2.07;;;;;;;7.26;100.00;95651.78;5055818;28;20668;-72
2022/12/21 10:18:05;;;;;;;7.13;2.13;;;;;;;7.59;100.00;95657.84;5045779;28;20790;-72
2022/12/21 10:20:46;;;;;;;2.90;1.83;;;;;;;7.70;100.00;95652.97;5053074;28;20751;-73
2022/12/21 10:23:18;;;;;;;3.05;1.63;;;;;;;7.96;100.00;95656.72;5056590;28;20711;-73
2022/12/21 10:25:48;;;;;;;2.40;1.70;;;;;;;8.00;100.00;95653.88;5057247;28;20679;-73
2022/12/21 10:28:26;;;;;;;3.53;2.13;;;;;;;7.99;100.00;95651.41;5053401;28;25012;-76
2022/12/21 10:31:00;;;;;;;4.40;2.20;;;;;;;7.97;100.00;95648.91;5047791;28;20774;-72
2022/12/21 10:33:26;;;;;;;2.63;1.70;;;;;;;7.95;100.00;95655.06;5054238;28;20656;-72
2022/12/21 10:35:59;;;;;;;4.57;2.50;;;;;;;7.95;100.00;95655.88;5051635;28;24455;-72
2022/12/21 10:38:29;;;;;;;2.63;1.77;;;;;;;7.96;100.00;95656.72;5054994;28;20679;-72
2022/12/21 10:40:56;;;;;;;3.67;2.17;;;;;;;8.00;100.00;95656.47;5059449;28;24438;-72
2022/12/21 10:43:24;;;;;;;3.88;2.50;;;;;;;8.03;100.00;95652.06;5047892;28;24443;-72
2022/12/21 10:45:50;;;;;;;3.75;2.70;;;;;;;7.99;100.00;95646.25;5048232;28;21354;-71
2022/12/21 10:48:19;;;;;;;4.63;2.60;;;;;;;8.00;100.00;95643.56;5050282;28;24451;-73
2022/12/21 10:50:50;;;;;;;3.60;2.45;;;;;;;8.06;100.00;95639.84;5051235;28;21553;-74
2022/12/21 10:53:22;;;;;;;3.78;2.40;;;;;;;8.20;100.00;95639.09;5046986;28;20809;-73
2022/12/21 10:55:49;;;;;;;2.47;2.08;;;;;;;8.36;100.00;95633.88;5051500;28;20828;-74
2022/12/21 10:58:18;;;;;;;2.92;1.05;;;;;;;8.40;100.00;95633.66;5061154;28;24437;-73
2022/12/21 11:01:00;;;;;;;3.45;1.20;;;;;;;8.40;100.00;95638.81;5060465;28;24439;-73
2022/12/21 11:03:29;;;;;;;2.75;1.30;;;;;;;8.47;100.00;95634.16;5050508;28;24450;-73
2022/12/21 11:05:56;;;;;;;2.00;1.27;;;;;;;8.40;100.00;95633.66;5041413;28;25103;-73
2022/12/21 11:08:27;;;;;;;1.20;1.00;;;;;;;8.38;100.00;95640.66;5049474;28;24443;-73
2022/12/21 11:10:55;;;;;;;2.25;1.60;;;;;;;8.33;100.00;95649.53;5049202;28;24427;-74
2022/12/21 11:13:25;;;;;;;1.85;1.45;;;;;;;8.32;100.00;95650.47;5038610;28;24444;-73
2022/12/21 11:16:01;;;;;;;2.83;1.55;;;;;;;8.29;100.00;95648.88;5057801;28;24508;-73
2022/12/21 11:18:39;;;;;;;2.65;1.90;;;;;;;8.42;100.00;95639.56;5050103;28;20805;-73
2022/12/21 11:21:13;;;;;;;4.68;2.03;;;;;;;8.61;100.00;95641.13;5061581;28;24423;-73
2022/12/21 11:23:40;;;;;;;6.77;3.00;;;;;;;8.81;100.00;95637.38;5049027;28;24447;-74
2022/12/21 11:26:15;;;;;;;4.25;2.00;;;;;;;8.99;100.00;95638.06;5057975;28;25007;-73
2022/12/21 11:28:42;;;;;;;4.93;3.20;;;;;;;9.10;100.00;95641.69;5053347;28;24794;-73
2022/12/21 11:31:10;;;;;;;4.93;3.17;;;;;;;9.18;100.00;95643.81;5039959;28;24445;-73
2022/12/21 11:33:36;;;;;;;12.20;4.55;;;;;;;9.15;100.00;95638.81;5052462;28;24455;-73
2022/12/21 11:36:09;;;;;;;14.20;5.53;;;;;;;9.10;100.00;95633.09;5053657;28;24463;-73
2022/12/21 11:38:37;;;;;;;14.25;6.57;;;;;;;9.06;100.00;95634.19;5068613;28;24434;-73
2022/12/21 11:41:10;;;;;;;3.60;2.30;;;;;;;9.04;100.00;95633.44;5057282;28;24435;-73
2022/12/21 11:43:44;;;;;;;5.30;1.50;;;;;;;9.05;100.00;95633.38;5053224;28;24924;-73
2022/12/21 11:46:24;;;;;;;2.00;1.20;;;;;;;9.11;100.00;95627.00;5050810;28;24430;-73
2022/12/21 11:48:59;;;;;;;2.72;1.70;;;;;;;9.15;100.00;95629.31;5042390;28;24999;-75
2022/12/21 11:51:33;;;;;;;2.58;1.77;;;;;;;9.19;100.00;95623.03;5043387;28;24430;-73
2022/12/21 11:54:16;;;;;;;2.80;2.08;;;;;;;9.22;100.00;95619.44;5058626;28;24457;-75
2022/12/21 11:56:49;;;;;;;6.15;4.50;;;;;;;9.23;100.00;95618.50;5049010;28;24439;-74